Time;durP1;ratioP1;P1;durP2;ratioP2;P2;SDS_P1;SDS_P2;PMS_P1;PMS_P2;Temp;Humidity;BMP_temperature;BMP_pressure;BME280_temperature;BME280_humidity;BME280_pressure;Samples;Min_cycle;Max_cycle;Signal;HPM_P1;HPM_P2
2022/03/10 00:02:13;;;;;;;;;54.00;42.33;;;;;8.69;100.00;101632.94;5057676;28;45334;-82
2022/03/10 00:04:39;;;;;;;;;47.67;36.00;;;;;8.68;100.00;101635.69;5063315;28;45392;-80
2022/03/10 00:07:04;;;;;;;;;49.67;40.00;;;;;8.65;100.00;101639.31;5060601;28;44734;-80
2022/03/10 00:09:34;;;;;;;;;54.67;40.00;;;;;8.62;100.00;101638.59;5057385;28;45379;-81
2022/03/10 00:12:00;;;;;;;;;53.00;41.33;;;;;8.57;100.00;101643.25;5057353;28;45363;-80
2022/03/10 00:14:26;;;;;;;;;53.33;42.00;;;;;8.54;100.00;101636.28;5072983;28;44855;-81
2022/03/10 00:16:52;;;;;;;;;55.67;41.33;;;;;8.51;100.00;101639.09;5057251;27;45296;-81
2022/03/10 00:19:18;;;;;;;;;53.00;42.00;;;;;8.48;100.00;101631.25;5056742;28;45351;-81
2022/03/10 00:21:44;;;;;;;;;54.00;41.33;;;;;8.46;100.00;101634.00;5072737;28;44895;-81
2022/03/10 00:24:09;;;;;;;;;46.33;39.67;;;;;8.42;100.00;101636.84;5056021;27;45433;-82
2022/03/10 00:26:37;;;;;;;;;51.00;39.00;;;;;8.39;100.00;101635.16;5057493;28;44808;-82
2022/03/10 00:29:02;;;;;;;;;45.33;39.00;;;;;8.35;100.00;101637.97;5058787;27;45506;-79
2022/03/10 00:31:29;;;;;;;;;51.67;41.67;;;;;8.33;100.00;101635.41;5064014;28;45278;-81
2022/03/10 00:33:54;;;;;;;;;49.33;41.67;;;;;8.30;100.00;101634.66;5061245;28;45176;-80
2022/03/10 00:36:20;;;;;;;;;49.67;38.00;;;;;8.27;100.00;101640.97;5057613;28;45544;-81
2022/03/10 00:38:45;;;;;;;;;46.67;38.67;;;;;8.26;100.00;101639.22;5056255;28;46857;-81
2022/03/10 00:41:11;;;;;;;;;42.33;37.67;;;;;8.24;100.00;101641.94;5056846;28;45249;-81
2022/03/10 00:43:36;;;;;;;;;44.67;35.67;;;;;8.23;100.00;101640.25;5057449;28;44809;-80
2022/03/10 00:46:02;;;;;;;;;54.00;41.33;;;;;8.23;100.00;101642.03;5056906;28;45253;-80
2022/03/10 00:48:28;;;;;;;;;54.67;39.33;;;;;8.21;100.00;101650.00;5056494;28;46052;-81
2022/03/10 00:50:54;;;;;;;;;53.00;41.67;;;;;8.19;100.00;101646.59;5056736;28;44727;-81
2022/03/10 00:53:19;;;;;;;;;53.00;40.67;;;;;8.18;100.00;101655.44;5065311;27;45413;-82
2022/03/10 00:55:44;;;;;;;;;48.67;41.33;;;;;8.17;100.00;101650.19;5075584;27;44951;-80
2022/03/10 00:58:10;;;;;;;;;51.33;40.33;;;;;8.14;100.00;101653.84;5077439;27;45427;-81
2022/03/10 01:00:35;;;;;;;;;48.67;38.00;;;;;8.13;100.00;101651.28;5081707;28;44742;-82
2022/03/10 01:03:01;;;;;;;;;48.67;38.67;;;;;8.11;100.00;101655.75;5077150;28;45311;-80
2022/03/10 01:05:26;;;;;;;;;44.00;36.00;;;;;8.10;100.00;101646.97;5076947;27;44734;-80
2022/03/10 01:07:52;;;;;;;;;48.33;35.00;;;;;8.08;100.00;101642.69;5076718;27;45362;-81
2022/03/10 01:10:18;;;;;;;;;53.00;39.00;;;;;8.09;100.00;101642.59;5076474;27;45489;-81
2022/03/10 01:12:45;;;;;;;;;48.67;39.00;;;;;8.08;100.00;101647.97;5076699;27;45364;-81
2022/03/10 01:15:22;;;;;;;;;49.00;39.67;;;;;8.05;100.00;101648.09;5074130;28;45552;-80
2022/03/10 01:17:47;;;;;;;;;49.33;37.33;;;;;8.04;100.00;101657.81;5077462;27;45530;-80
2022/03/10 01:20:13;;;;;;;;;51.00;39.33;;;;;8.02;100.00;101653.50;5077746;27;45375;-79
2022/03/10 01:22:40;;;;;;;;;43.00;35.00;;;;;8.01;100.00;101651.78;5078146;27;44812;-79
2022/03/10 01:25:07;;;;;;;;;46.33;38.33;;;;;8.01;100.00;101651.78;5077117;27;45395;-81
2022/03/10 01:27:33;;;;;;;;;47.67;39.67;;;;;7.98;100.00;101651.00;5079778;27;45199;-83
2022/03/10 01:29:58;;;;;;;;;49.67;39.33;;;;;7.96;100.00;101647.53;5085393;27;45432;-83
2022/03/10 01:32:26;;;;;;;;;52.67;39.67;;;;;7.93;100.00;101638.88;5077872;28;45249;-83
2022/03/10 01:34:52;;;;;;;;;44.33;39.00;;;;;7.89;100.00;101639.94;5076780;28;45419;-83
2022/03/10 01:37:18;;;;;;;;;44.33;38.33;;;;;7.86;100.00;101648.00;5077365;27;45394;-83
2022/03/10 01:39:43;;;;;;;;;49.00;38.33;;;;;7.85;100.00;101643.63;5077274;27;44817;-83
2022/03/10 01:42:09;;;;;;;;;50.00;37.00;;;;;7.82;100.00;101641.09;5076752;27;45964;-83
2022/03/10 01:44:35;;;;;;;;;46.67;36.00;;;;;7.80;100.00;101643.81;5076458;27;45348;-83
2022/03/10 01:47:03;;;;;;;;;47.67;36.67;;;;;7.79;100.00;101641.25;5079039;27;44979;-83
2022/03/10 01:49:29;;;;;;;;;46.33;38.00;;;;;7.80;100.00;101643.81;5077985;27;44677;-83
2022/03/10 01:51:54;;;;;;;;;47.67;38.33;;;;;7.82;100.00;101641.09;5077534;27;44719;-83
2022/03/10 01:54:21;;;;;;;;;47.67;35.00;;;;;7.83;100.00;101649.00;5096137;27;45592;-82
2022/03/10 01:56:47;;;;;;;;;42.00;35.00;;;;;7.83;100.00;101642.81;5102526;27;45058;-84
2022/03/10 01:59:14;;;;;;;;;38.00;35.33;;;;;7.83;100.00;101635.75;5104080;27;45162;-82
2022/03/10 02:01:40;;;;;;;;;39.67;34.67;;;;;7.83;100.00;101641.06;5102711;27;45439;-82
2022/03/10 02:04:05;;;;;;;;;44.33;37.00;;;;;7.80;100.00;101630.59;5097505;27;45523;-83
2022/03/10 02:06:31;;;;;;;;;49.67;38.00;;;;;7.80;100.00;101632.38;5102002;27;45028;-85
2022/03/10 02:11:42;;;;;;;;;48.33;38.00;;;;;7.75;100.00;101631.69;5111774;27;45244;-81
2022/03/10 02:19:37;;;;;;;;;45.00;38.33;;;;;7.64;100.00;101637.41;5104450;27;44758;-84
2022/03/10 02:22:07;;;;;;;;;48.00;38.00;;;;;7.63;100.00;101638.34;5098368;27;44869;-83
2022/03/10 02:24:35;;;;;;;;;47.67;36.67;;;;;7.61;100.00;101633.13;5097210;27;45564;-83
2022/03/10 02:27:15;;;;;;;;;50.67;41.00;;;;;7.59;100.00;101626.16;5098956;27;46914;-82
2022/03/10 02:29:43;;;;;;;;;40.67;35.67;;;;;7.56;100.00;101636.88;5103081;27;44851;-83
2022/03/10 02:32:09;;;;;;;;;45.67;36.67;;;;;7.53;100.00;101632.56;5102219;27;44794;-83
2022/03/10 02:34:34;;;;;;;;;48.67;38.00;;;;;7.51;100.00;101628.25;5096646;27;45411;-83
2022/03/10 02:37:00;;;;;;;;;50.00;40.33;;;;;7.48;100.00;101630.09;5096637;27;45354;-82
2022/03/10 02:39:25;;;;;;;;;43.00;36.67;;;;;7.46;100.00;101633.72;5096649;27;44863;-83
2022/03/10 02:41:50;;;;;;;;;52.67;39.67;;;;;7.43;100.00;101634.69;5096606;27;44826;-83
2022/03/10 02:44:16;;;;;;;;;47.33;39.33;;;;;7.40;100.00;101640.13;5096724;27;45429;-83
2022/03/10 02:46:41;;;;;;;;;48.33;39.67;;;;;7.37;100.00;101636.72;5097255;27;45072;-82
2022/03/10 02:49:07;;;;;;;;;47.33;39.67;;;;;7.33;100.00;101637.75;5100706;27;44765;-83
2022/03/10 02:51:32;;;;;;;;;44.67;38.67;;;;;7.32;100.00;101641.34;5100716;27;44738;-82
2022/03/10 02:53:57;;;;;;;;;47.67;40.00;;;;;7.29;100.00;101639.66;5086060;27;44862;-82
2022/03/10 02:56:23;;;;;;;;;54.67;41.67;;;;;7.28;100.00;101643.22;5079476;27;45241;-82
2022/03/10 02:58:48;;;;;;;;;51.00;37.33;;;;;7.25;100.00;101639.84;5079705;28;44702;-81
2022/03/10 03:01:13;;;;;;;;;42.67;38.33;;;;;7.21;100.00;101649.69;5084400;27;45529;-83
2022/03/10 03:03:39;;;;;;;;;46.00;37.00;;;;;7.18;100.00;101645.38;5087045;27;45460;-83
2022/03/10 03:06:04;;;;;;;;;40.67;37.33;;;;;7.16;100.00;101649.00;5083330;27;45023;-83
2022/03/10 03:08:30;;;;;;;;;43.33;36.00;;;;;7.13;100.00;101652.59;5079704;27;45430;-83
2022/03/10 03:10:55;;;;;;;;;51.67;38.67;;;;;7.12;100.00;101642.09;5079727;27;44758;-83
2022/03/10 03:13:20;;;;;;;;;53.00;37.33;;;;;7.10;100.00;101641.28;5077972;28;45304;-82
2022/03/10 03:15:46;;;;;;;;;52.67;41.00;;;;;7.08;100.00;101645.78;5079681;27;44922;-83
2022/03/10 03:18:11;;;;;;;;;43.33;37.00;;;;;7.07;100.00;101652.00;5079480;27;44706;-83
2022/03/10 03:20:36;;;;;;;;;47.00;36.33;;;;;7.04;100.00;101650.31;5079255;27;45200;-84
2022/03/10 03:23:02;;;;;;;;;50.33;42.00;;;;;7.02;100.00;101646.88;5078893;27;45083;-83
2022/03/10 03:25:27;;;;;;;;;42.33;36.33;;;;;7.01;100.00;101655.72;5077012;27;46778;-83
2022/03/10 03:27:53;;;;;;;;;54.33;40.33;;;;;6.98;100.00;101655.84;5079136;27;45388;-83
2022/03/10 03:30:18;;;;;;;;;42.00;37.00;;;;;6.97;100.00;101653.25;5079948;27;45137;-82
2022/03/10 03:32:45;;;;;;;;;57.00;41.00;;;;;6.92;100.00;101651.66;5081839;27;44888;-83
2022/03/10 03:35:10;;;;;;;;;49.67;40.00;;;;;6.90;100.00;101658.75;5085817;27;45436;-82
2022/03/10 03:37:36;;;;;;;;;42.67;36.67;;;;;6.88;100.00;101665.88;5082759;27;44775;-83
2022/03/10 03:40:03;;;;;;;;;49.33;40.33;;;;;6.85;100.00;101663.34;5078566;27;44761;-83
2022/03/10 03:42:32;;;;;;;;;32.00;30.00;;;;;6.84;100.00;101668.69;5078545;27;45308;-84
2022/03/10 03:44:58;;;;;;;;;49.00;37.33;;;;;6.82;100.00;101665.25;5078236;27;45324;-81
2022/03/10 03:47:23;;;;;;;;;47.00;38.00;;;;;6.80;100.00;101669.69;5078190;27;45253;-83
2022/03/10 03:49:49;;;;;;;;;52.00;38.67;;;;;6.80;100.00;101672.34;5078351;27;45177;-82
2022/03/10 03:52:14;;;;;;;;;35.33;34.00;;;;;6.78;100.00;101663.63;5078595;27;44819;-82
2022/03/10 03:54:39;;;;;;;;;44.00;36.00;;;;;6.76;100.00;101666.31;5081648;27;45182;-82
2022/03/10 03:57:05;;;;;;;;;41.00;36.67;;;;;6.74;100.00;101662.00;5083568;27;44717;-82
2022/03/10 03:59:30;;;;;;;;;46.00;39.00;;;;;6.72;100.00;101664.72;5080627;27;45562;-82
2022/03/10 04:01:55;;;;;;;;;45.33;36.00;;;;;6.69;100.00;101668.31;5082981;27;45420;-84
2022/03/10 04:04:22;;;;;;;;;54.00;39.00;;;;;6.67;100.00;101671.91;5084985;27;45095;-83
2022/03/10 04:06:48;;;;;;;;;45.33;37.67;;;;;6.65;100.00;101676.41;5085076;27;45392;-83
2022/03/10 04:09:14;;;;;;;;;48.33;38.33;;;;;6.61;100.00;101673.00;5078474;27;44736;-81
2022/03/10 04:11:39;;;;;;;;;45.67;37.67;;;;;6.58;100.00;101667.84;5077733;28;45303;-82
2022/03/10 04:14:05;;;;;;;;;43.00;34.67;;;;;6.56;100.00;101666.16;5078184;27;45177;-82
2022/03/10 04:16:31;;;;;;;;;37.33;32.67;;;;;6.53;100.00;101672.44;5078456;27;44887;-84
2022/03/10 04:18:57;;;;;;;;;46.67;37.00;;;;;6.52;100.00;101667.19;5078510;27;45371;-82
2022/03/10 04:21:22;;;;;;;;;43.33;36.67;;;;;6.48;100.00;101679.66;5078481;28;44992;-83
2022/03/10 04:23:47;;;;;;;;;50.00;38.33;;;;;6.45;100.00;101682.38;5077537;27;45212;-82
2022/03/10 04:26:13;;;;;;;;;47.67;35.67;;;;;6.43;100.00;101681.56;5078312;27;44749;-82
2022/03/10 04:28:38;;;;;;;;;42.00;34.33;;;;;6.42;100.00;101682.47;5076496;27;44749;-83
2022/03/10 04:31:04;;;;;;;;;51.67;38.67;;;;;6.41;100.00;101686.03;5077840;27;44799;-83
2022/03/10 04:33:30;;;;;;;;;45.67;35.67;;;;;6.38;100.00;101687.03;5078732;27;45390;-82
2022/03/10 04:35:56;;;;;;;;;53.00;38.33;;;;;6.36;100.00;101683.56;5080279;27;44772;-82
2022/03/10 04:38:22;;;;;;;;;48.33;38.00;;;;;6.35;100.00;101683.63;5085699;27;44752;-85
2022/03/10 04:40:47;;;;;;;;;45.00;36.00;;;;;6.33;100.00;101688.91;5087088;27;44765;-85
2022/03/10 04:43:13;;;;;;;;;49.33;37.67;;;;;6.31;100.00;101682.00;5085298;27;46828;-82
2022/03/10 04:45:39;;;;;;;;;47.67;37.67;;;;;6.28;100.00;101680.31;5078851;27;44859;-83
2022/03/10 04:48:06;;;;;;;;;51.33;41.00;;;;;6.26;100.00;101684.78;5080689;27;44799;-83
2022/03/10 04:50:32;;;;;;;;;46.33;37.00;;;;;6.25;100.00;101679.56;5079765;27;45630;-82
2022/03/10 04:52:58;;;;;;;;;39.33;29.67;;;;;6.23;100.00;101684.00;5079936;27;45324;-85
2022/03/10 04:55:23;;;;;;;;;44.67;36.33;;;;;6.22;100.00;101687.56;5081501;27;44832;-83
2022/03/10 04:57:49;;;;;;;;;46.67;36.67;;;;;6.20;100.00;101684.13;5079468;27;45482;-83
2022/03/10 05:00:18;;;;;;;;;47.67;40.33;;;;;6.18;100.00;101685.03;5078200;27;44890;-83
2022/03/10 05:02:44;;;;;;;;;43.33;37.00;;;;;6.16;100.00;101683.38;5077181;27;45240;-83
2022/03/10 05:05:12;;;;;;;;;48.67;37.33;;;;;6.15;100.00;101685.16;5078205;27;44724;-84
2022/03/10 05:07:38;;;;;;;;;43.00;34.33;;;;;6.14;100.00;101679.91;5076959;27;44919;-83
2022/03/10 05:10:04;;;;;;;;;48.00;37.33;;;;;6.12;100.00;101682.59;5079212;27;44911;-83
2022/03/10 05:12:29;;;;;;;;;49.33;39.67;;;;;6.11;100.00;101680.88;5085102;27;45289;-82
2022/03/10 05:14:55;;;;;;;;;39.67;33.33;;;;;6.11;100.00;101680.03;5077261;27;44761;-81
2022/03/10 05:17:23;;;;;;;;;41.33;36.33;;;;;6.10;100.00;101675.66;5077250;27;44781;-83
2022/03/10 05:19:49;;;;;;;;;47.00;38.00;;;;;6.07;100.00;101671.34;5077338;27;44802;-82
2022/03/10 05:22:14;;;;;;;;;51.00;40.00;;;;;6.08;100.00;101669.56;5076917;28;45247;-84
2022/03/10 05:24:39;;;;;;;;;50.33;39.67;;;;;6.06;100.00;101672.25;5077152;27;45299;-83
2022/03/10 05:27:05;;;;;;;;;50.67;41.33;;;;;6.05;100.00;101673.19;5077035;27;45415;-83
2022/03/10 05:29:30;;;;;;;;;43.67;36.33;;;;;6.06;100.00;101682.81;5077169;27;45391;-82
2022/03/10 05:31:55;;;;;;;;;50.67;37.00;;;;;6.05;100.00;101677.59;5076663;27;45352;-83
2022/03/10 05:34:21;;;;;;;;;43.33;37.00;;;;;6.04;100.00;101675.84;5077834;28;45212;-83
2022/03/10 05:36:46;;;;;;;;;51.00;40.00;;;;;6.02;100.00;101675.06;5077771;27;45235;-84
2022/03/10 05:39:12;;;;;;;;;45.00;36.33;;;;;6.00;100.00;101676.88;5079976;27;45448;-82
2022/03/10 05:41:37;;;;;;;;;45.67;34.33;;;;;5.97;100.00;101675.19;5083776;27;45240;-83
2022/03/10 05:44:03;;;;;;;;;44.33;38.67;;;;;5.98;100.00;101673.41;5081795;27;44747;-84
2022/03/10 05:46:28;;;;;;;;;46.00;37.33;;;;;5.96;100.00;101684.03;5083957;27;45386;-84
2022/03/10 05:48:54;;;;;;;;;48.00;39.33;;;;;5.95;100.00;101677.03;5078919;27;44774;-82
2022/03/10 05:51:20;;;;;;;;;41.67;35.00;;;;;5.93;100.00;101684.97;5077134;27;45765;-83
2022/03/10 05:53:48;;;;;;;;;49.67;40.67;;;;;5.92;100.00;101687.69;5089369;27;45475;-85
2022/03/10 05:56:13;;;;;;;;;52.67;41.67;;;;;5.91;100.00;101680.66;5095907;27;45445;-84
2022/03/10 05:58:41;;;;;;;;;46.33;39.00;;;;;5.91;100.00;101678.91;5095616;27;45588;-84
2022/03/10 06:01:07;;;;;;;;;51.33;38.67;;;;;5.91;100.00;101678.00;5096939;27;45401;-84
2022/03/10 06:03:36;;;;;;;;;50.67;41.33;;;;;5.91;100.00;101692.09;5096060;27;44965;-85
2022/03/10 06:06:02;;;;;;;;;50.33;38.00;;;;;5.92;100.00;101695.59;5097717;27;44807;-84
2022/03/10 06:08:27;;;;;;;;;47.67;38.33;;;;;5.92;100.00;101687.69;5096345;27;45603;-85
2022/03/10 06:10:53;;;;;;;;;48.67;39.67;;;;;5.90;100.00;101682.44;5097753;27;45295;-85
2022/03/10 06:13:18;;;;;;;;;49.33;38.33;;;;;5.89;100.00;101691.22;5100440;27;45264;-84
2022/03/10 06:15:43;;;;;;;;;48.67;41.00;;;;;5.89;100.00;101696.50;5101485;27;44649;-84
2022/03/10 06:18:09;;;;;;;;;51.00;40.67;;;;;5.89;100.00;101691.22;5102448;27;45267;-84
2022/03/10 06:20:34;;;;;;;;;51.67;40.67;;;;;5.88;100.00;101684.22;5104080;27;45445;-85
2022/03/10 06:23:00;;;;;;;;;57.33;42.33;;;;;5.91;100.00;101693.84;5110148;27;44742;-84
2022/03/10 06:25:26;;;;;;;;;48.67;39.67;;;;;5.93;100.00;101686.75;5111858;27;44739;-84
2022/03/10 06:27:51;;;;;;;;;49.33;40.33;;;;;5.97;100.00;101692.81;5084786;27;44868;-84
2022/03/10 06:30:17;;;;;;;;;52.67;43.33;;;;;5.99;100.00;101697.09;5068929;27;45134;-85
2022/03/10 06:32:42;;;;;;;;;51.33;43.00;;;;;6.00;100.00;101695.34;5067578;28;44651;-85
2022/03/10 06:35:08;;;;;;;;;53.00;42.67;;;;;6.06;100.00;101698.63;5066444;28;44819;-84
2022/03/10 06:37:33;;;;;;;;;61.33;43.00;;;;;6.11;100.00;101693.22;5063085;28;45437;-84
2022/03/10 06:39:59;;;;;;;;;50.33;38.67;;;;;6.13;100.00;101696.66;5061799;27;45244;-87
2022/03/10 06:42:24;;;;;;;;;56.00;42.33;;;;;6.15;100.00;101700.13;5062354;28;45289;-86
2022/03/10 06:44:50;;;;;;;;;56.33;42.67;;;;;6.17;100.00;101696.50;5082951;27;44931;-84
2022/03/10 06:47:16;;;;;;;;;51.67;40.67;;;;;6.23;100.00;101699.84;5072634;27;44943;-85
2022/03/10 06:49:42;;;;;;;;;51.67;40.00;;;;;6.28;100.00;101701.41;5064085;28;45306;-86
2022/03/10 06:52:10;;;;;;;;;50.00;37.33;;;;;6.35;100.00;101702.09;5065372;28;45265;-85
2022/03/10 06:54:38;;;;;;;;;51.33;40.00;;;;;6.43;100.00;101697.38;5069531;28;44823;-84
2022/03/10 06:57:04;;;;;;;;;51.33;39.67;;;;;6.52;100.00;101702.34;5086866;27;45405;-85
2022/03/10 06:59:29;;;;;;;;;44.67;38.00;;;;;6.60;100.00;101702.97;5085082;27;45134;-85
2022/03/10 07:01:55;;;;;;;;;46.00;39.33;;;;;6.70;100.00;101700.84;5083993;28;45429;-85
2022/03/10 07:04:20;;;;;;;;;47.00;38.33;;;;;6.80;100.00;101710.19;5085289;27;45223;-86
2022/03/10 07:06:46;;;;;;;;;44.00;33.67;;;;;6.85;100.00;101704.72;5079959;28;45453;-84
2022/03/10 07:09:12;;;;;;;;;46.00;36.00;;;;;6.92;100.00;101709.75;5060833;28;45179;-85
2022/03/10 07:11:38;;;;;;;;;52.33;43.67;;;;;7.04;100.00;101710.22;5060362;28;45212;-84
2022/03/10 07:14:03;;;;;;;;;54.33;39.33;;;;;7.13;100.00;101716.03;5060174;27;45122;-87
2022/03/10 07:16:28;;;;;;;;;51.00;40.33;;;;;7.21;100.00;101711.31;5060608;28;45431;-86
2022/03/10 07:18:54;;;;;;;;;48.00;37.67;;;;;7.32;100.00;101720.63;5061032;28;45246;-86
2022/03/10 07:21:21;;;;;;;;;55.00;45.67;;;;;7.43;100.00;101719.28;5059587;28;45244;-86
2022/03/10 07:23:47;;;;;;;;;50.33;39.00;;;;;7.51;100.00;101721.66;5061401;28;44772;-85
2022/03/10 07:26:13;;;;;;;;;54.67;38.33;;;;;7.61;100.00;101723.03;5063550;27;44751;-84
2022/03/10 07:28:39;;;;;;;;;36.67;33.00;;;;;7.74;100.00;101720.78;5069406;28;47315;-86
2022/03/10 07:31:05;;;;;;;;;49.33;39.00;;;;;7.85;100.00;101723.84;5083261;27;44821;-84
2022/03/10 07:33:31;;;;;;;;;55.00;41.67;;;;;7.95;100.00;101729.63;5083458;27;45289;-83
2022/03/10 07:35:56;;;;;;;;;53.00;43.67;;;;;8.07;100.00;101734.41;5083779;27;45454;-88
2022/03/10 07:38:23;;;;;;;;;52.67;39.33;;;;;8.18;100.00;101729.56;5085795;27;45154;-92
2022/03/10 07:40:48;;;;;;;;;44.67;36.00;;;;;8.27;100.00;101730.09;5089958;27;44645;-90
2022/03/10 07:43:15;;;;;;;;;49.67;40.33;;;;;8.36;100.00;101727.06;5089285;27;44851;-92
2022/03/10 07:45:40;;;;;;;;;51.00;39.33;;;;;8.44;100.00;101728.50;5088065;27;44816;-92
2022/03/10 07:48:06;;;;;;;;;46.33;39.33;;;;;8.55;100.00;101727.19;5071239;27;46678;-92
2022/03/10 07:50:33;;;;;;;;;46.67;38.67;;;;;8.67;100.00;101726.66;5096162;28;44675;-92
2022/03/10 07:52:59;;;;;;;;;50.67;39.33;;;;;8.76;100.00;101723.63;5092817;27;45253;-93
2022/03/10 07:55:27;;;;;;;;;45.67;38.67;;;;;8.85;100.00;101725.00;5086891;28;44712;-92
2022/03/10 07:57:54;;;;;;;;;48.33;41.00;;;;;8.92;100.00;101734.41;5086002;27;45255;-88
2022/03/10 08:00:19;;;;;;;;;49.00;37.67;;;;;9.02;100.00;101735.72;5087086;27;44695;-93
2022/03/10 08:02:45;;;;;;;;;49.67;40.67;;;;;9.08;100.00;101740.75;5091218;28;44770;-91
2022/03/10 08:05:10;;;;;;;;;46.67;36.00;;;;;9.12;100.00;101723.78;5099026;27;45014;-90
2022/03/10 08:07:36;;;;;;;;;43.67;37.33;;;;;9.19;100.00;101727.03;5105650;27;45163;-91
2022/03/10 08:10:05;;;;;;;;;50.67;40.00;;;;;9.31;100.00;101729.09;5104429;27;44605;-91
2022/03/10 08:12:34;;;;;;;;;49.33;41.33;;;;;9.39;100.00;101732.28;5103559;28;44773;-88
2022/03/10 08:15:00;;;;;;;;;41.00;34.67;;;;;9.51;100.00;101723.72;5103199;27;44809;-89
2022/03/10 08:17:28;;;;;;;;;48.00;40.00;;;;;9.65;100.00;101727.53;5102203;28;46800;-89
2022/03/10 08:19:55;;;;;;;;;51.67;38.67;;;;;9.71;100.00;101730.75;5103000;27;44933;-89
2022/03/10 08:22:21;;;;;;;;;41.67;33.00;;;;;9.77;100.00;101726.97;5102200;27;44767;-90
2022/03/10 08:24:48;;;;;;;;;43.33;36.67;;;;;9.87;100.00;101725.59;5095435;28;44757;-90
2022/03/10 08:27:15;;;;;;;;;47.33;38.00;;;;;9.97;100.00;101721.56;5099443;27;45051;-90
2022/03/10 08:29:41;;;;;;;;;48.33;39.00;;;;;10.07;100.00;101726.44;5092226;27;45130;-89
2022/03/10 08:32:08;;;;;;;;;42.00;34.33;;;;;10.11;100.00;101725.34;5077984;28;44674;-89
2022/03/10 08:34:36;;;;;;;;;45.33;36.33;;;;;10.23;100.00;101722.06;5079568;28;44926;-89
2022/03/10 08:37:04;;;;;;;;;44.33;37.67;;;;;10.33;100.00;101717.19;5070286;28;45256;-92
2022/03/10 08:39:29;;;;;;;;;46.33;36.33;;;;;10.44;100.00;101714.84;5072143;27;45426;-88
2022/03/10 08:41:55;;;;;;;;;36.33;34.00;;;;;10.52;100.00;101715.31;5091245;27;44821;-89
2022/03/10 08:44:21;;;;;;;;;39.33;35.33;;;;;10.58;100.00;101712.34;5099883;27;45303;-91
2022/03/10 08:46:49;;;;;;;;;44.00;37.00;;;;;10.66;100.00;101711.97;5112555;27;46959;-91
2022/03/10 08:49:16;;;;;;;;;42.00;32.67;;;;;10.73;100.00;101708.03;5094747;27;44894;-92
2022/03/10 08:51:42;;;;;;;;;30.67;27.33;;;;;10.75;100.00;101706.16;5076195;28;44704;-92
2022/03/10 08:54:07;;;;;;;;;28.67;28.33;;;;;10.77;100.00;101705.13;5063078;27;44869;-91
2022/03/10 08:56:34;;;;;;;;;39.00;34.00;;;;;10.84;100.00;101700.38;5063124;28;45354;-91
2022/03/10 08:58:59;;;;;;;;;37.00;32.67;;;;;10.94;100.00;101704.25;5060388;27;44769;-89
2022/03/10 09:01:25;;;;;;;;;38.67;34.33;;;;;11.08;100.00;101703.53;5059756;28;45273;-91
2022/03/10 09:03:50;;;;;;;;;42.33;34.00;;;;;11.22;100.00;101702.81;5062743;28;45664;-90
2022/03/10 09:06:16;;;;;;;;;37.00;33.67;;;;;11.38;100.00;101692.16;5062665;28;45225;-91
2022/03/10 09:08:44;;;;;;;;;38.33;32.33;;;;;11.47;100.00;101703.16;5066524;28;45434;-90
2022/03/10 09:11:09;;;;;;;;;33.67;30.33;;;;;11.50;100.00;101702.13;5067501;28;44714;-91
2022/03/10 09:13:34;;;;;;;;;38.00;31.67;;;;;11.57;100.00;101699.06;5065854;28;45419;-91
2022/03/10 09:16:00;;;;;;;;;36.33;33.00;;;;;11.65;100.00;101701.25;5073186;28;45323;-90
2022/03/10 09:18:25;;;;;;;;;33.33;29.33;;;;;11.70;100.00;101696.56;5075231;28;44875;-90
2022/03/10 09:20:51;;;;;;;;;44.00;33.00;;;;;11.73;100.00;101695.53;5080423;28;44989;-90
2022/03/10 09:23:16;;;;;;;;;40.00;29.67;;;;;11.78;100.00;101694.31;5080261;28;44826;-86
2022/03/10 09:25:42;;;;;;;;;24.33;20.33;;;;;11.92;100.00;101698.03;5070091;28;45374;-86
2022/03/10 09:28:07;;;;;;;;;37.67;32.67;;;;;12.04;100.00;101698.19;5064370;28;45169;-86
2022/03/10 09:30:33;;;;;;;;;37.00;31.67;;;;;12.21;100.00;101691.03;5066061;28;45320;-86
2022/03/10 09:32:59;;;;;;;;;31.33;29.33;;;;;12.34;100.00;101698.22;5083445;27;45558;-85
2022/03/10 09:35:25;;;;;;;;;28.33;27.33;;;;;12.44;100.00;101695.88;5079366;27;45291;-85
2022/03/10 09:37:52;;;;;;;;;41.00;34.00;;;;;12.60;100.00;101687.78;5076322;27;44664;-83
2022/03/10 09:40:17;;;;;;;;;37.25;30.50;;;;;12.70;100.00;101682.78;5072335;28;45304;-84
2022/03/10 09:42:46;;;;;;;;;40.00;32.00;;;;;12.78;100.00;101688.50;5056408;28;45344;-82
2022/03/10 09:45:12;;;;;;;;;37.25;32.00;;;;;12.90;100.00;101690.41;5055873;28;45596;-83
2022/03/10 09:47:39;;;;;;;;;37.00;34.00;;;;;12.97;100.00;101675.75;5054669;28;44896;-83
2022/03/10 09:50:10;;;;;;;;;31.67;30.00;;;;;13.07;100.00;101679.56;5056311;28;45461;-83
2022/03/10 09:52:36;;;;;;;;;34.50;31.00;;;;;13.17;100.00;101682.50;5056084;28;44778;-83
2022/03/10 09:55:02;;;;;;;;;36.00;33.00;;;;;13.31;100.00;101681.69;5055697;27;45113;-84
2022/03/10 09:57:28;;;;;;;;;39.75;32.00;;;;;13.41;100.00;101674.81;5055309;28;45236;-84
2022/03/10 09:59:57;;;;;;;;;33.00;28.25;;;;;13.51;100.00;101678.59;5057749;28;44814;-84
2022/03/10 10:02:23;;;;;;;;;35.50;30.50;;;;;13.59;100.00;101678.13;5061123;27;45367;-84
2022/03/10 10:04:49;;;;;;;;;36.75;33.75;;;;;13.66;100.00;101670.56;5062231;28;45314;-82
2022/03/10 10:07:21;;;;;;;;;32.50;26.50;;;;;13.75;100.00;101670.81;5062487;28;45308;-85
2022/03/10 10:09:56;;;;;;;;;34.50;31.50;;;;;13.85;100.00;101671.06;5057270;27;45486;-82
2022/03/10 10:12:29;;;;;;;;;30.75;28.50;;;;;14.00;100.00;101666.53;5056852;28;45383;-83
2022/03/10 10:14:56;;;;;;;;;21.50;19.25;;;;;14.01;100.00;101674.41;5059004;28;45433;-83
2022/03/10 10:17:26;;;;;;;;;29.25;26.50;;;;;14.05;100.00;101659.91;5062420;28;44799;-84
2022/03/10 10:19:58;;;;;;;;;31.25;29.00;;;;;14.15;100.00;101660.16;5060315;28;45419;-84
2022/03/10 10:22:25;;;;;;;;;25.75;25.50;;;;;14.28;100.00;101661.03;5057332;28;44840;-83
2022/03/10 10:24:57;;;;;;;;;30.00;28.25;;;;;14.40;100.00;101664.69;5057765;28;45460;-84
2022/03/10 10:27:26;;;;;;;;;33.00;31.25;;;;;14.50;100.00;101652.44;5055057;28;45459;-83
2022/03/10 10:29:56;;;;;;;;;22.00;16.00;;;;;14.57;100.00;101661.75;5055684;28;45403;-83
2022/03/10 10:32:44;;;;;;;;;31.50;21.50;;;;;14.63;100.00;101663.16;5055783;28;45163;-84
2022/03/10 10:35:13;;;;;;;;;29.50;21.50;;;;;14.69;100.00;101652.00;5056215;28;45174;-82
2022/03/10 10:37:42;;;;;;;;;25.60;21.20;;;;;14.75;100.00;101643.59;5058897;28;45330;-83
2022/03/10 10:40:09;;;;;;;;;24.50;21.25;;;;;14.85;100.00;101641.97;5061872;27;44848;-84
2022/03/10 10:42:38;;;;;;;;;25.75;22.75;;;;;14.97;100.00;101632.22;5063327;28;44876;-85
2022/03/10 10:45:27;;;;;;;;;21.50;19.75;;;;;15.08;100.00;101636.78;5059890;28;45018;-83
2022/03/10 10:48:08;;;;;;;;;27.25;20.50;;;;;15.16;100.00;101634.44;5058664;28;45431;-82
2022/03/10 10:50:40;;;;;;;;;26.25;19.25;;;;;15.30;100.00;101628.06;5055980;28;45290;-84
2022/03/10 10:53:06;;;;;;;;;23.00;22.25;;;;;15.36;100.00;101623.13;5058103;28;45439;-83
2022/03/10 10:55:45;;;;;;;;;20.25;17.50;;;;;15.46;100.00;101617.09;5060296;28;45465;-84
2022/03/10 10:58:14;;;;;;;;;20.00;15.20;;;;;15.51;100.00;101613.09;5056497;28;44812;-82
2022/03/10 11:00:44;;;;;;;;;18.20;15.20;;;;;15.64;100.00;101616.63;5055594;28;44895;-83
2022/03/10 11:03:28;;;;;;;;;16.00;15.50;;;;;15.77;100.00;101613.91;5055367;28;45347;-83
2022/03/10 11:05:54;;;;;;;;;22.50;18.75;;;;;15.93;100.00;101608.25;5055023;28;45190;-84
2022/03/10 11:08:25;;;;;;;;;20.50;20.50;;;;;15.94;100.00;101607.25;5056307;28;44800;-83
2022/03/10 11:10:51;;;;;;;;;17.40;13.20;;;;;16.08;100.00;101596.34;5058908;28;45481;-84
2022/03/10 11:13:17;;;;;;;;;14.75;14.50;;;;;16.14;100.00;101601.22;5058664;28;45463;-83